sensor_id;sensor_type;location;lat;lon;timestamp;P1;durP1;ratioP1;P2;durP2;ratioP2
26965;SDS011;14522;52.068;4.414;2022-12-18T00:01:21;45.05;;;22.73;;
26965;SDS011;14522;52.068;4.414;2022-12-18T00:03:51;45.92;;;21.73;;
26965;SDS011;14522;52.068;4.414;2022-12-18T00:06:19;49.78;;;24.90;;
26965;SDS011;14522;52.068;4.414;2022-12-18T00:08:47;56.58;;;26.73;;
26965;SDS011;14522;52.068;4.414;2022-12-18T00:11:15;39.85;;;20.02;;
26965;SDS011;14522;52.068;4.414;2022-12-18T00:13:42;53.45;;;25.02;;
26965;SDS011;14522;52.068;4.414;2022-12-18T00:16:10;43.38;;;20.63;;
26965;SDS011;14522;52.068;4.414;2022-12-18T00:18:36;50.03;;;25.23;;
26965;SDS011;14522;52.068;4.414;2022-12-18T00:21:06;55.05;;;26.65;;
26965;SDS011;14522;52.068;4.414;2022-12-18T00:23:36;46.97;;;22.27;;
26965;SDS011;14522;52.068;4.414;2022-12-18T00:26:05;45.03;;;21.60;;
26965;SDS011;14522;52.068;4.414;2022-12-18T00:28:32;42.28;;;21.23;;
26965;SDS011;14522;52.068;4.414;2022-12-18T00:31:21;46.45;;;23.33;;
26965;SDS011;14522;52.068;4.414;2022-12-18T00:33:47;50.88;;;24.33;;
26965;SDS011;14522;52.068;4.414;2022-12-18T00:36:22;41.65;;;21.13;;
26965;SDS011;14522;52.068;4.414;2022-12-18T00:38:48;50.70;;;24.30;;
26965;SDS011;14522;52.068;4.414;2022-12-18T00:41:17;48.65;;;24.15;;
26965;SDS011;14522;52.068;4.414;2022-12-18T00:44:05;47.85;;;23.80;;
26965;SDS011;14522;52.068;4.414;2022-12-18T00:46:39;50.30;;;24.73;;
26965;SDS011;14522;52.068;4.414;2022-12-18T00:49:06;50.25;;;23.92;;
26965;SDS011;14522;52.068;4.414;2022-12-18T00:51:35;46.47;;;23.65;;
26965;SDS011;14522;52.068;4.414;2022-12-18T00:54:10;44.38;;;22.90;;
26965;SDS011;14522;52.068;4.414;2022-12-18T00:56:37;37.53;;;19.35;;
26965;SDS011;14522;52.068;4.414;2022-12-18T00:59:14;36.08;;;17.75;;
26965;SDS011;14522;52.068;4.414;2022-12-18T01:01:42;42.42;;;22.25;;
26965;SDS011;14522;52.068;4.414;2022-12-18T01:04:09;46.08;;;23.02;;
26965;SDS011;14522;52.068;4.414;2022-12-18T01:06:38;51.13;;;25.75;;
26965;SDS011;14522;52.068;4.414;2022-12-18T01:09:05;44.65;;;21.65;;
26965;SDS011;14522;52.068;4.414;2022-12-18T01:11:32;49.65;;;23.00;;
26965;SDS011;14522;52.068;4.414;2022-12-18T01:13:58;51.10;;;24.73;;
26965;SDS011;14522;52.068;4.414;2022-12-18T01:16:28;48.83;;;23.23;;
26965;SDS011;14522;52.068;4.414;2022-12-18T01:19:00;45.25;;;21.90;;
26965;SDS011;14522;52.068;4.414;2022-12-18T01:21:26;39.85;;;21.30;;
26965;SDS011;14522;52.068;4.414;2022-12-18T01:23:53;40.30;;;20.17;;
26965;SDS011;14522;52.068;4.414;2022-12-18T01:26:26;45.38;;;23.23;;
26965;SDS011;14522;52.068;4.414;2022-12-18T01:28:56;46.88;;;23.13;;
26965;SDS011;14522;52.068;4.414;2022-12-18T01:31:24;46.28;;;21.90;;
26965;SDS011;14522;52.068;4.414;2022-12-18T01:33:51;49.42;;;25.15;;
26965;SDS011;14522;52.068;4.414;2022-12-18T01:36:20;50.28;;;24.48;;
26965;SDS011;14522;52.068;4.414;2022-12-18T01:38:47;42.78;;;20.90;;
26965;SDS011;14522;52.068;4.414;2022-12-18T01:41:17;53.45;;;24.27;;
26965;SDS011;14522;52.068;4.414;2022-12-18T01:43:48;47.13;;;22.52;;
26965;SDS011;14522;52.068;4.414;2022-12-18T01:46:15;42.95;;;20.27;;
26965;SDS011;14522;52.068;4.414;2022-12-18T01:48:43;37.42;;;18.90;;
26965;SDS011;14522;52.068;4.414;2022-12-18T01:51:10;44.97;;;23.02;;
26965;SDS011;14522;52.068;4.414;2022-12-18T01:53:40;52.17;;;24.40;;
26965;SDS011;14522;52.068;4.414;2022-12-18T01:56:08;35.85;;;18.58;;
26965;SDS011;14522;52.068;4.414;2022-12-18T01:58:44;55.45;;;24.40;;
26965;SDS011;14522;52.068;4.414;2022-12-18T02:01:15;54.60;;;24.55;;
26965;SDS011;14522;52.068;4.414;2022-12-18T02:03:45;39.15;;;19.25;;
26965;SDS011;14522;52.068;4.414;2022-12-18T02:06:16;48.58;;;23.38;;
26965;SDS011;14522;52.068;4.414;2022-12-18T02:11:17;51.65;;;24.95;;
26965;SDS011;14522;52.068;4.414;2022-12-18T02:16:21;48.00;;;23.20;;
26965;SDS011;14522;52.068;4.414;2022-12-18T02:18:56;49.17;;;22.80;;
26965;SDS011;14522;52.068;4.414;2022-12-18T02:24:21;40.33;;;19.58;;
26965;SDS011;14522;52.068;4.414;2022-12-18T02:26:56;31.63;;;17.15;;
26965;SDS011;14522;52.068;4.414;2022-12-18T02:29:24;38.90;;;19.13;;
26965;SDS011;14522;52.068;4.414;2022-12-18T02:31:59;47.20;;;21.50;;
26965;SDS011;14522;52.068;4.414;2022-12-18T02:34:28;40.95;;;19.70;;
26965;SDS011;14522;52.068;4.414;2022-12-18T02:36:58;42.28;;;20.20;;
26965;SDS011;14522;52.068;4.414;2022-12-18T02:39:29;50.22;;;23.27;;
26965;SDS011;14522;52.068;4.414;2022-12-18T02:41:57;51.63;;;23.90;;
26965;SDS011;14522;52.068;4.414;2022-12-18T02:44:24;50.90;;;23.60;;
26965;SDS011;14522;52.068;4.414;2022-12-18T02:46:51;44.20;;;22.67;;
26965;SDS011;14522;52.068;4.414;2022-12-18T02:51:50;42.67;;;20.63;;
26965;SDS011;14522;52.068;4.414;2022-12-18T02:57:15;50.42;;;22.65;;
26965;SDS011;14522;52.068;4.414;2022-12-18T03:00:28;44.13;;;22.50;;
26965;SDS011;14522;52.068;4.414;2022-12-18T03:02:38;46.13;;;22.33;;
26965;SDS011;14522;52.068;4.414;2022-12-18T03:05:09;42.15;;;21.40;;
26965;SDS011;14522;52.068;4.414;2022-12-18T03:10:34;45.67;;;22.43;;
26965;SDS011;14522;52.068;4.414;2022-12-18T03:13:05;26.30;;;13.65;;
26965;SDS011;14522;52.068;4.414;2022-12-18T03:15:34;33.22;;;18.25;;
26965;SDS011;14522;52.068;4.414;2022-12-18T03:18:07;42.65;;;20.60;;
26965;SDS011;14522;52.068;4.414;2022-12-18T03:20:36;38.65;;;20.13;;
26965;SDS011;14522;52.068;4.414;2022-12-18T03:23:25;33.30;;;17.80;;
26965;SDS011;14522;52.068;4.414;2022-12-18T03:25:56;34.00;;;17.77;;
26965;SDS011;14522;52.068;4.414;2022-12-18T03:28:33;28.80;;;15.13;;
26965;SDS011;14522;52.068;4.414;2022-12-18T03:31:01;33.10;;;18.73;;
26965;SDS011;14522;52.068;4.414;2022-12-18T03:36:17;30.67;;;15.70;;
26965;SDS011;14522;52.068;4.414;2022-12-18T03:38:44;39.40;;;19.30;;
26965;SDS011;14522;52.068;4.414;2022-12-18T03:41:16;30.13;;;15.80;;
26965;SDS011;14522;52.068;4.414;2022-12-18T03:43:55;39.38;;;20.77;;
26965;SDS011;14522;52.068;4.414;2022-12-18T03:46:30;34.03;;;17.60;;
26965;SDS011;14522;52.068;4.414;2022-12-18T03:49:07;33.65;;;18.88;;
26965;SDS011;14522;52.068;4.414;2022-12-18T03:51:37;36.65;;;19.17;;
26965;SDS011;14522;52.068;4.414;2022-12-18T03:54:07;35.45;;;18.50;;
26965;SDS011;14522;52.068;4.414;2022-12-18T03:56:37;37.10;;;18.65;;
26965;SDS011;14522;52.068;4.414;2022-12-18T03:59:05;30.55;;;16.35;;
26965;SDS011;14522;52.068;4.414;2022-12-18T04:01:36;33.65;;;17.77;;
26965;SDS011;14522;52.068;4.414;2022-12-18T04:04:05;35.53;;;18.48;;
26965;SDS011;14522;52.068;4.414;2022-12-18T04:06:33;32.30;;;16.92;;
26965;SDS011;14522;52.068;4.414;2022-12-18T04:09:00;29.58;;;15.93;;
26965;SDS011;14522;52.068;4.414;2022-12-18T04:11:28;34.65;;;18.45;;
26965;SDS011;14522;52.068;4.414;2022-12-18T04:14:00;34.17;;;18.25;;
26965;SDS011;14522;52.068;4.414;2022-12-18T04:16:32;32.40;;;17.48;;
26965;SDS011;14522;52.068;4.414;2022-12-18T04:19:01;33.92;;;17.13;;
26965;SDS011;14522;52.068;4.414;2022-12-18T04:21:29;30.88;;;15.55;;
26965;SDS011;14522;52.068;4.414;2022-12-18T04:23:58;33.70;;;18.08;;
26965;SDS011;14522;52.068;4.414;2022-12-18T04:26:24;30.65;;;16.63;;
26965;SDS011;14522;52.068;4.414;2022-12-18T04:28:51;31.80;;;17.02;;
26965;SDS011;14522;52.068;4.414;2022-12-18T04:31:17;35.00;;;17.98;;
26965;SDS011;14522;52.068;4.414;2022-12-18T04:33:46;36.72;;;19.90;;
26965;SDS011;14522;52.068;4.414;2022-12-18T04:36:12;34.15;;;18.20;;
26965;SDS011;14522;52.068;4.414;2022-12-18T04:38:43;34.80;;;17.52;;
26965;SDS011;14522;52.068;4.414;2022-12-18T04:41:10;28.17;;;15.10;;
26965;SDS011;14522;52.068;4.414;2022-12-18T04:43:37;34.15;;;17.38;;
26965;SDS011;14522;52.068;4.414;2022-12-18T04:46:06;32.13;;;17.23;;
26965;SDS011;14522;52.068;4.414;2022-12-18T04:48:36;38.58;;;19.17;;
26965;SDS011;14522;52.068;4.414;2022-12-18T04:51:05;31.50;;;16.52;;
26965;SDS011;14522;52.068;4.414;2022-12-18T04:53:36;35.78;;;18.35;;
26965;SDS011;14522;52.068;4.414;2022-12-18T04:56:07;24.85;;;13.30;;
26965;SDS011;14522;52.068;4.414;2022-12-18T04:58:42;35.75;;;18.55;;
26965;SDS011;14522;52.068;4.414;2022-12-18T05:01:09;29.90;;;15.75;;
26965;SDS011;14522;52.068;4.414;2022-12-18T05:03:37;35.85;;;18.05;;
26965;SDS011;14522;52.068;4.414;2022-12-18T05:06:04;34.03;;;18.60;;
26965;SDS011;14522;52.068;4.414;2022-12-18T05:08:33;35.08;;;17.70;;
26965;SDS011;14522;52.068;4.414;2022-12-18T05:11:00;35.58;;;17.67;;
26965;SDS011;14522;52.068;4.414;2022-12-18T05:13:27;33.25;;;17.75;;
26965;SDS011;14522;52.068;4.414;2022-12-18T05:16:06;37.00;;;18.83;;
26965;SDS011;14522;52.068;4.414;2022-12-18T05:18:41;22.95;;;12.88;;
26965;SDS011;14522;52.068;4.414;2022-12-18T05:21:09;36.45;;;18.30;;
26965;SDS011;14522;52.068;4.414;2022-12-18T05:23:36;33.45;;;16.70;;
26965;SDS011;14522;52.068;4.414;2022-12-18T05:26:04;27.83;;;15.38;;
26965;SDS011;14522;52.068;4.414;2022-12-18T05:28:31;32.78;;;18.27;;
26965;SDS011;14522;52.068;4.414;2022-12-18T05:30:59;31.27;;;16.42;;
26965;SDS011;14522;52.068;4.414;2022-12-18T05:33:26;35.13;;;17.75;;
26965;SDS011;14522;52.068;4.414;2022-12-18T05:35:55;30.52;;;17.00;;
26965;SDS011;14522;52.068;4.414;2022-12-18T05:38:24;35.38;;;17.80;;
26965;SDS011;14522;52.068;4.414;2022-12-18T05:40:54;31.40;;;16.38;;
26965;SDS011;14522;52.068;4.414;2022-12-18T05:43:21;33.47;;;18.95;;
26965;SDS011;14522;52.068;4.414;2022-12-18T05:46:12;37.25;;;18.92;;
26965;SDS011;14522;52.068;4.414;2022-12-18T05:48:42;30.13;;;17.17;;
26965;SDS011;14522;52.068;4.414;2022-12-18T05:51:11;32.65;;;18.63;;
26965;SDS011;14522;52.068;4.414;2022-12-18T05:53:38;32.50;;;18.27;;
26965;SDS011;14522;52.068;4.414;2022-12-18T05:56:12;33.35;;;19.75;;
26965;SDS011;14522;52.068;4.414;2022-12-18T05:58:40;35.90;;;20.15;;
26965;SDS011;14522;52.068;4.414;2022-12-18T06:01:08;33.65;;;18.08;;
26965;SDS011;14522;52.068;4.414;2022-12-18T06:03:35;35.42;;;18.02;;
26965;SDS011;14522;52.068;4.414;2022-12-18T06:06:02;33.33;;;17.85;;
26965;SDS011;14522;52.068;4.414;2022-12-18T06:08:31;32.25;;;17.48;;
26965;SDS011;14522;52.068;4.414;2022-12-18T06:11:03;34.40;;;18.63;;
26965;SDS011;14522;52.068;4.414;2022-12-18T06:13:30;37.83;;;20.50;;
26965;SDS011;14522;52.068;4.414;2022-12-18T06:15:56;36.47;;;20.40;;
26965;SDS011;14522;52.068;4.414;2022-12-18T06:18:25;30.70;;;17.48;;
26965;SDS011;14522;52.068;4.414;2022-12-18T06:20:56;31.77;;;17.92;;
26965;SDS011;14522;52.068;4.414;2022-12-18T06:23:22;32.35;;;18.45;;
26965;SDS011;14522;52.068;4.414;2022-12-18T06:25:49;26.27;;;15.23;;
26965;SDS011;14522;52.068;4.414;2022-12-18T06:28:18;19.75;;;11.65;;
26965;SDS011;14522;52.068;4.414;2022-12-18T06:30:49;29.90;;;16.58;;
26965;SDS011;14522;52.068;4.414;2022-12-18T06:33:16;27.95;;;15.07;;
26965;SDS011;14522;52.068;4.414;2022-12-18T06:35:44;22.67;;;14.02;;
26965;SDS011;14522;52.068;4.414;2022-12-18T06:38:13;21.38;;;12.93;;
26965;SDS011;14522;52.068;4.414;2022-12-18T06:40:40;26.25;;;15.43;;
26965;SDS011;14522;52.068;4.414;2022-12-18T06:43:09;21.38;;;12.55;;
26965;SDS011;14522;52.068;4.414;2022-12-18T06:45:36;24.88;;;13.40;;
26965;SDS011;14522;52.068;4.414;2022-12-18T06:48:08;27.50;;;15.85;;
26965;SDS011;14522;52.068;4.414;2022-12-18T06:50:36;22.65;;;13.68;;
26965;SDS011;14522;52.068;4.414;2022-12-18T06:53:03;26.52;;;15.02;;
26965;SDS011;14522;52.068;4.414;2022-12-18T06:55:31;24.63;;;14.02;;
26965;SDS011;14522;52.068;4.414;2022-12-18T06:57:59;30.30;;;16.98;;
26965;SDS011;14522;52.068;4.414;2022-12-18T07:00:26;26.75;;;14.95;;
26965;SDS011;14522;52.068;4.414;2022-12-18T07:02:53;26.25;;;14.32;;
26965;SDS011;14522;52.068;4.414;2022-12-18T07:05:22;26.05;;;14.43;;
26965;SDS011;14522;52.068;4.414;2022-12-18T07:07:51;24.70;;;14.95;;
26965;SDS011;14522;52.068;4.414;2022-12-18T07:10:21;26.45;;;14.25;;
26965;SDS011;14522;52.068;4.414;2022-12-18T07:12:53;24.75;;;13.77;;
26965;SDS011;14522;52.068;4.414;2022-12-18T07:15:21;25.15;;;14.73;;
26965;SDS011;14522;52.068;4.414;2022-12-18T07:17:47;19.48;;;11.65;;
26965;SDS011;14522;52.068;4.414;2022-12-18T07:20:14;20.98;;;13.02;;
26965;SDS011;14522;52.068;4.414;2022-12-18T07:22:50;23.42;;;13.68;;
26965;SDS011;14522;52.068;4.414;2022-12-18T07:25:21;27.30;;;15.98;;
26965;SDS011;14522;52.068;4.414;2022-12-18T07:27:49;27.42;;;15.77;;
26965;SDS011;14522;52.068;4.414;2022-12-18T07:30:15;21.67;;;12.65;;
26965;SDS011;14522;52.068;4.414;2022-12-18T07:32:45;26.52;;;14.05;;
26965;SDS011;14522;52.068;4.414;2022-12-18T07:35:11;24.92;;;13.75;;
26965;SDS011;14522;52.068;4.414;2022-12-18T07:37:50;24.50;;;14.02;;
26965;SDS011;14522;52.068;4.414;2022-12-18T07:40:16;22.88;;;13.93;;
26965;SDS011;14522;52.068;4.414;2022-12-18T07:42:43;25.58;;;12.82;;
26965;SDS011;14522;52.068;4.414;2022-12-18T07:45:10;23.40;;;13.07;;
26965;SDS011;14522;52.068;4.414;2022-12-18T07:47:38;15.60;;;10.38;;
26965;SDS011;14522;52.068;4.414;2022-12-18T07:50:07;20.20;;;10.98;;
26965;SDS011;14522;52.068;4.414;2022-12-18T07:52:38;21.75;;;12.55;;
26965;SDS011;14522;52.068;4.414;2022-12-18T07:55:04;20.13;;;11.98;;
26965;SDS011;14522;52.068;4.414;2022-12-18T07:57:32;18.27;;;10.95;;
26965;SDS011;14522;52.068;4.414;2022-12-18T08:00:21;21.13;;;11.82;;
26965;SDS011;14522;52.068;4.414;2022-12-18T08:02:48;15.13;;;8.73;;
26965;SDS011;14522;52.068;4.414;2022-12-18T08:05:15;22.75;;;11.52;;
26965;SDS011;14522;52.068;4.414;2022-12-18T08:07:41;16.98;;;10.50;;
26965;SDS011;14522;52.068;4.414;2022-12-18T08:10:10;17.70;;;10.23;;
26965;SDS011;14522;52.068;4.414;2022-12-18T08:12:38;16.70;;;11.10;;
26965;SDS011;14522;52.068;4.414;2022-12-18T08:15:05;20.45;;;11.43;;
26965;SDS011;14522;52.068;4.414;2022-12-18T08:17:44;21.70;;;12.35;;
26965;SDS011;14522;52.068;4.414;2022-12-18T08:20:18;17.05;;;11.10;;
26965;SDS011;14522;52.068;4.414;2022-12-18T08:22:45;18.23;;;11.07;;
26965;SDS011;14522;52.068;4.414;2022-12-18T08:25:11;21.13;;;11.80;;
26965;SDS011;14522;52.068;4.414;2022-12-18T08:27:41;15.25;;;10.38;;
26965;SDS011;14522;52.068;4.414;2022-12-18T08:30:09;16.35;;;10.27;;
26965;SDS011;14522;52.068;4.414;2022-12-18T08:32:36;15.27;;;10.05;;
26965;SDS011;14522;52.068;4.414;2022-12-18T08:35:04;19.00;;;9.80;;
26965;SDS011;14522;52.068;4.414;2022-12-18T08:37:31;18.95;;;11.85;;
26965;SDS011;14522;52.068;4.414;2022-12-18T08:40:00;17.23;;;10.27;;
26965;SDS011;14522;52.068;4.414;2022-12-18T08:42:29;15.82;;;10.13;;
26965;SDS011;14522;52.068;4.414;2022-12-18T08:45:16;17.05;;;9.95;;
26965;SDS011;14522;52.068;4.414;2022-12-18T08:47:50;17.23;;;9.98;;
26965;SDS011;14522;52.068;4.414;2022-12-18T08:50:16;13.85;;;8.70;;
26965;SDS011;14522;52.068;4.414;2022-12-18T08:52:45;17.75;;;9.70;;
26965;SDS011;14522;52.068;4.414;2022-12-18T08:55:12;13.00;;;8.85;;
26965;SDS011;14522;52.068;4.414;2022-12-18T08:57:39;19.65;;;11.55;;
26965;SDS011;14522;52.068;4.414;2022-12-18T09:00:05;14.60;;;9.18;;
26965;SDS011;14522;52.068;4.414;2022-12-18T09:02:33;15.77;;;9.25;;
26965;SDS011;14522;52.068;4.414;2022-12-18T09:05:00;16.50;;;8.63;;
26965;SDS011;14522;52.068;4.414;2022-12-18T09:07:28;17.02;;;10.98;;
26965;SDS011;14522;52.068;4.414;2022-12-18T09:09:55;13.77;;;8.85;;
26965;SDS011;14522;52.068;4.414;2022-12-18T09:12:21;17.77;;;10.20;;
26965;SDS011;14522;52.068;4.414;2022-12-18T09:14:48;15.27;;;8.73;;
26965;SDS011;14522;52.068;4.414;2022-12-18T09:17:18;17.75;;;10.95;;
26965;SDS011;14522;52.068;4.414;2022-12-18T09:19:47;15.85;;;8.90;;
26965;SDS011;14522;52.068;4.414;2022-12-18T09:22:13;15.45;;;9.90;;
26965;SDS011;14522;52.068;4.414;2022-12-18T09:24:40;17.27;;;10.95;;
26965;SDS011;14522;52.068;4.414;2022-12-18T09:27:07;16.55;;;10.35;;
26965;SDS011;14522;52.068;4.414;2022-12-18T09:29:34;15.40;;;8.50;;
26965;SDS011;14522;52.068;4.414;2022-12-18T09:32:01;16.65;;;9.10;;
26965;SDS011;14522;52.068;4.414;2022-12-18T09:34:27;16.25;;;9.25;;
26965;SDS011;14522;52.068;4.414;2022-12-18T09:36:54;15.68;;;9.23;;
26965;SDS011;14522;52.068;4.414;2022-12-18T09:39:20;15.02;;;8.70;;
26965;SDS011;14522;52.068;4.414;2022-12-18T09:41:51;19.00;;;10.60;;
26965;SDS011;14522;52.068;4.414;2022-12-18T09:44:28;15.07;;;8.80;;
26965;SDS011;14522;52.068;4.414;2022-12-18T09:47:01;16.75;;;9.50;;
26965;SDS011;14522;52.068;4.414;2022-12-18T09:49:31;18.23;;;9.43;;
26965;SDS011;14522;52.068;4.414;2022-12-18T09:52:14;13.18;;;8.40;;
26965;SDS011;14522;52.068;4.414;2022-12-18T09:54:43;16.52;;;9.90;;
26965;SDS011;14522;52.068;4.414;2022-12-18T09:57:13;18.13;;;10.05;;
26965;SDS011;14522;52.068;4.414;2022-12-18T09:59:55;13.90;;;8.33;;
26965;SDS011;14522;52.068;4.414;2022-12-18T10:02:24;15.32;;;8.93;;
26965;SDS011;14522;52.068;4.414;2022-12-18T10:05:05;17.88;;;9.32;;
26965;SDS011;14522;52.068;4.414;2022-12-18T10:07:36;15.52;;;8.68;;
26965;SDS011;14522;52.068;4.414;2022-12-18T10:10:10;17.88;;;9.73;;
26965;SDS011;14522;52.068;4.414;2022-12-18T10:15:14;14.07;;;8.55;;
26965;SDS011;14522;52.068;4.414;2022-12-18T10:25:26;16.13;;;9.48;;
26965;SDS011;14522;52.068;4.414;2022-12-18T10:28:00;15.68;;;10.48;;
26965;SDS011;14522;52.068;4.414;2022-12-18T10:30:33;13.57;;;8.40;;
26965;SDS011;14522;52.068;4.414;2022-12-18T10:33:02;14.10;;;8.65;;
26965;SDS011;14522;52.068;4.414;2022-12-18T10:35:29;15.82;;;9.30;;
26965;SDS011;14522;52.068;4.414;2022-12-18T10:40:27;12.65;;;8.20;;
26965;SDS011;14522;52.068;4.414;2022-12-18T10:43:04;15.05;;;9.48;;
26965;SDS011;14522;52.068;4.414;2022-12-18T10:45:32;16.70;;;9.35;;
26965;SDS011;14522;52.068;4.414;2022-12-18T10:47:58;12.73;;;8.40;;
26965;SDS011;14522;52.068;4.414;2022-12-18T10:50:29;14.43;;;9.13;;
26965;SDS011;14522;52.068;4.414;2022-12-18T10:53:20;15.50;;;8.52;;
26965;SDS011;14522;52.068;4.414;2022-12-18T10:55:56;14.38;;;9.57;;
26965;SDS011;14522;52.068;4.414;2022-12-18T10:58:25;11.40;;;6.80;;
26965;SDS011;14522;52.068;4.414;2022-12-18T11:01:06;18.52;;;10.63;;
26965;SDS011;14522;52.068;4.414;2022-12-18T11:06:07;14.82;;;8.73;;
26965;SDS011;14522;52.068;4.414;2022-12-18T11:08:37;12.18;;;8.88;;
26965;SDS011;14522;52.068;4.414;2022-12-18T11:11:18;14.15;;;9.68;;
26965;SDS011;14522;52.068;4.414;2022-12-18T11:13:54;14.70;;;9.15;;
26965;SDS011;14522;52.068;4.414;2022-12-18T11:16:23;14.00;;;9.38;;
26965;SDS011;14522;52.068;4.414;2022-12-18T11:18:50;12.57;;;8.02;;
26965;SDS011;14522;52.068;4.414;2022-12-18T11:21:17;14.02;;;9.07;;
26965;SDS011;14522;52.068;4.414;2022-12-18T11:23:50;10.73;;;7.60;;
26965;SDS011;14522;52.068;4.414;2022-12-18T11:26:19;14.38;;;8.52;;
26965;SDS011;14522;52.068;4.414;2022-12-18T11:29:06;13.05;;;7.68;;
26965;SDS011;14522;52.068;4.414;2022-12-18T11:31:37;16.80;;;9.57;;
26965;SDS011;14522;52.068;4.414;2022-12-18T11:34:11;11.45;;;6.55;;
26965;SDS011;14522;52.068;4.414;2022-12-18T11:36:54;11.30;;;6.90;;
26965;SDS011;14522;52.068;4.414;2022-12-18T11:39:38;13.52;;;8.43;;
26965;SDS011;14522;52.068;4.414;2022-12-18T11:44:42;13.40;;;7.68;;
26965;SDS011;14522;52.068;4.414;2022-12-18T11:47:31;14.20;;;8.98;;
26965;SDS011;14522;52.068;4.414;2022-12-18T11:50:01;15.88;;;8.88;;
26965;SDS011;14522;52.068;4.414;2022-12-18T11:52:38;13.70;;;9.23;;
26965;SDS011;14522;52.068;4.414;2022-12-18T11:55:10;12.48;;;7.97;;
26965;SDS011;14522;52.068;4.414;2022-12-18T12:00:11;10.60;;;7.55;;
26965;SDS011;14522;52.068;4.414;2022-12-18T12:02:47;11.40;;;7.25;;
26965;SDS011;14522;52.068;4.414;2022-12-18T12:08:15;11.68;;;7.80;;
26965;SDS011;14522;52.068;4.414;2022-12-18T12:16:07;12.97;;;6.80;;
26965;SDS011;14522;52.068;4.414;2022-12-18T12:21:39;15.88;;;9.77;;
26965;SDS011;14522;52.068;4.414;2022-12-18T12:24:26;13.55;;;8.40;;
26965;SDS011;14522;52.068;4.414;2022-12-18T12:29:59;14.15;;;9.27;;
26965;SDS011;14522;52.068;4.414;2022-12-18T12:40:22;12.48;;;8.23;;
26965;SDS011;14522;52.068;4.414;2022-12-18T12:46:00;17.42;;;9.88;;
26965;SDS011;14522;52.068;4.414;2022-12-18T12:48:43;15.32;;;9.00;;
26965;SDS011;14522;52.068;4.414;2022-12-18T12:51:15;12.63;;;9.20;;
26965;SDS011;14522;52.068;4.414;2022-12-18T12:53:46;15.30;;;9.95;;
26965;SDS011;14522;52.068;4.414;2022-12-18T12:56:14;12.43;;;9.05;;
26965;SDS011;14522;52.068;4.414;2022-12-18T12:58:46;15.88;;;9.48;;
26965;SDS011;14522;52.068;4.414;2022-12-18T13:12:51;15.82;;;10.40;;
26965;SDS011;14522;52.068;4.414;2022-12-18T13:15:31;15.30;;;9.52;;
26965;SDS011;14522;52.068;4.414;2022-12-18T13:20:39;15.13;;;9.68;;
26965;SDS011;14522;52.068;4.414;2022-12-18T13:25:47;16.67;;;9.50;;
26965;SDS011;14522;52.068;4.414;2022-12-18T13:28:15;16.40;;;9.95;;
26965;SDS011;14522;52.068;4.414;2022-12-18T13:33:44;15.40;;;10.00;;
26965;SDS011;14522;52.068;4.414;2022-12-18T13:36:34;17.45;;;10.02;;
26965;SDS011;14522;52.068;4.414;2022-12-18T13:41:47;17.25;;;10.93;;
26965;SDS011;14522;52.068;4.414;2022-12-18T13:47:04;18.48;;;10.45;;
26965;SDS011;14522;52.068;4.414;2022-12-18T13:49:40;16.65;;;10.55;;
26965;SDS011;14522;52.068;4.414;2022-12-18T13:52:33;16.95;;;10.25;;
26965;SDS011;14522;52.068;4.414;2022-12-18T13:55:04;19.77;;;10.82;;
26965;SDS011;14522;52.068;4.414;2022-12-18T13:57:38;16.52;;;10.68;;
26965;SDS011;14522;52.068;4.414;2022-12-18T14:00:28;15.75;;;9.77;;
26965;SDS011;14522;52.068;4.414;2022-12-18T14:02:57;16.48;;;10.63;;
26965;SDS011;14522;52.068;4.414;2022-12-18T14:05:30;15.50;;;10.27;;
26965;SDS011;14522;52.068;4.414;2022-12-18T14:08:14;18.52;;;11.13;;
26965;SDS011;14522;52.068;4.414;2022-12-18T14:10:43;17.08;;;10.65;;
26965;SDS011;14522;52.068;4.414;2022-12-18T14:13:21;17.20;;;10.43;;
26965;SDS011;14522;52.068;4.414;2022-12-18T14:15:48;16.35;;;10.93;;
26965;SDS011;14522;52.068;4.414;2022-12-18T14:18:21;12.05;;;7.30;;
26965;SDS011;14522;52.068;4.414;2022-12-18T14:20:52;19.15;;;10.40;;
26965;SDS011;14522;52.068;4.414;2022-12-18T14:26:28;15.25;;;9.77;;
26965;SDS011;14522;52.068;4.414;2022-12-18T14:28:57;15.13;;;10.35;;
26965;SDS011;14522;52.068;4.414;2022-12-18T14:31:29;14.00;;;9.43;;
26965;SDS011;14522;52.068;4.414;2022-12-18T14:33:57;22.60;;;10.70;;
26965;SDS011;14522;52.068;4.414;2022-12-18T14:36:25;15.93;;;10.10;;
26965;SDS011;14522;52.068;4.414;2022-12-18T14:38:58;21.35;;;11.85;;
26965;SDS011;14522;52.068;4.414;2022-12-18T14:41:27;15.82;;;10.68;;
26965;SDS011;14522;52.068;4.414;2022-12-18T14:43:56;17.27;;;10.02;;
26965;SDS011;14522;52.068;4.414;2022-12-18T14:46:34;15.30;;;9.57;;
26965;SDS011;14522;52.068;4.414;2022-12-18T14:49:05;18.98;;;11.10;;
26965;SDS011;14522;52.068;4.414;2022-12-18T14:51:47;16.05;;;10.60;;
26965;SDS011;14522;52.068;4.414;2022-12-18T14:54:15;19.90;;;12.10;;
26965;SDS011;14522;52.068;4.414;2022-12-18T14:56:43;17.35;;;10.90;;
26965;SDS011;14522;52.068;4.414;2022-12-18T15:07:22;16.38;;;8.77;;
26965;SDS011;14522;52.068;4.414;2022-12-18T15:12:36;20.52;;;11.35;;
26965;SDS011;14522;52.068;4.414;2022-12-18T15:15:04;18.60;;;11.27;;
26965;SDS011;14522;52.068;4.414;2022-12-18T15:17:34;19.77;;;10.98;;
26965;SDS011;14522;52.068;4.414;2022-12-18T15:20:11;19.90;;;11.65;;
26965;SDS011;14522;52.068;4.414;2022-12-18T15:22:37;18.52;;;11.98;;
26965;SDS011;14522;52.068;4.414;2022-12-18T15:25:20;21.02;;;12.13;;
26965;SDS011;14522;52.068;4.414;2022-12-18T15:27:49;19.52;;;11.05;;
26965;SDS011;14522;52.068;4.414;2022-12-18T15:30:20;20.33;;;11.93;;
26965;SDS011;14522;52.068;4.414;2022-12-18T15:32:49;21.98;;;11.70;;
26965;SDS011;14522;52.068;4.414;2022-12-18T15:35:20;19.63;;;12.23;;
26965;SDS011;14522;52.068;4.414;2022-12-18T15:37:47;23.13;;;11.45;;
26965;SDS011;14522;52.068;4.414;2022-12-18T15:40:15;18.02;;;11.43;;
26965;SDS011;14522;52.068;4.414;2022-12-18T15:42:45;20.13;;;11.45;;
26965;SDS011;14522;52.068;4.414;2022-12-18T15:45:32;20.17;;;11.60;;
26965;SDS011;14522;52.068;4.414;2022-12-18T15:47:58;17.92;;;11.43;;
26965;SDS011;14522;52.068;4.414;2022-12-18T15:50:27;19.50;;;11.30;;
26965;SDS011;14522;52.068;4.414;2022-12-18T15:52:55;22.02;;;11.88;;
26965;SDS011;14522;52.068;4.414;2022-12-18T15:55:24;17.33;;;11.60;;
26965;SDS011;14522;52.068;4.414;2022-12-18T15:58:12;17.63;;;12.05;;
26965;SDS011;14522;52.068;4.414;2022-12-18T16:00:40;19.13;;;11.70;;
26965;SDS011;14522;52.068;4.414;2022-12-18T16:03:12;20.35;;;10.90;;
26965;SDS011;14522;52.068;4.414;2022-12-18T16:05:44;20.25;;;10.50;;
26965;SDS011;14522;52.068;4.414;2022-12-18T16:08:10;18.63;;;11.15;;
26965;SDS011;14522;52.068;4.414;2022-12-18T16:10:38;17.90;;;10.88;;
26965;SDS011;14522;52.068;4.414;2022-12-18T16:13:05;21.17;;;11.88;;
26965;SDS011;14522;52.068;4.414;2022-12-18T16:15:41;20.70;;;11.63;;
26965;SDS011;14522;52.068;4.414;2022-12-18T16:18:10;18.33;;;11.07;;
26965;SDS011;14522;52.068;4.414;2022-12-18T16:20:39;19.02;;;11.45;;
26965;SDS011;14522;52.068;4.414;2022-12-18T16:23:06;18.40;;;11.32;;
26965;SDS011;14522;52.068;4.414;2022-12-18T16:25:33;17.95;;;11.07;;
26965;SDS011;14522;52.068;4.414;2022-12-18T16:27:59;18.15;;;10.93;;